createdAt,value
2022-11-10T00:02:18.041Z,5.42
2022-11-10T00:05:06.288Z,5.38
2022-11-10T00:07:54.573Z,5.37
2022-11-10T00:10:58.458Z,5.36
2022-11-10T00:14:06.579Z,5.36
2022-11-10T00:17:04.756Z,5.37
2022-11-10T00:19:53.149Z,5.35
2022-11-10T00:22:42.428Z,5.34
2022-11-10T00:25:32.099Z,5.32
2022-11-10T00:28:19.909Z,5.31
2022-11-10T00:31:08.039Z,5.32
2022-11-10T00:33:56.220Z,5.29
2022-11-10T00:36:44.087Z,5.25
2022-11-10T00:39:31.519Z,5.24
2022-11-10T00:42:18.615Z,5.24
2022-11-10T00:45:07.637Z,5.22
2022-11-10T00:47:55.814Z,5.21
2022-11-10T00:50:43.454Z,5.17
2022-11-10T00:53:32.014Z,5.17
2022-11-10T00:56:19.506Z,5.17
2022-11-10T00:59:07.380Z,5.16
2022-11-10T01:01:56.204Z,5.13
2022-11-10T01:04:44.243Z,5.13
2022-11-10T01:07:32.743Z,5.14
2022-11-10T01:10:20.382Z,5.17
2022-11-10T01:13:07.597Z,5.17
2022-11-10T01:15:55.039Z,5.14
2022-11-10T01:18:43.726Z,5.13
2022-11-10T01:21:31.908Z,5.13
2022-11-10T01:24:21.716Z,5.13
2022-11-10T01:27:09.348Z,5.12
2022-11-10T01:29:56.949Z,5.12
2022-11-10T01:32:46.335Z,5.14
2022-11-10T01:35:35.228Z,5.15
2022-11-10T01:38:25.840Z,5.13
2022-11-10T01:41:14.310Z,5.10
2022-11-10T01:44:18.434Z,5.12
2022-11-10T01:47:06.006Z,5.12
2022-11-10T01:49:54.583Z,5.15
2022-11-10T01:52:44.584Z,5.15
2022-11-10T01:55:35.027Z,5.16
2022-11-10T01:58:26.270Z,5.16
2022-11-10T02:01:14.094Z,5.16
2022-11-10T02:04:07.948Z,5.14
2022-11-10T02:06:55.559Z,5.16
2022-11-10T02:09:43.150Z,5.17
2022-11-10T02:12:37.245Z,5.18
2022-11-10T02:15:24.842Z,5.19
2022-11-10T02:18:14.519Z,5.22
2022-11-10T02:21:06.019Z,5.25
2022-11-10T02:23:54.472Z,5.25
2022-11-10T02:26:49.135Z,5.25
2022-11-10T02:29:37.925Z,5.23
2022-11-10T02:32:25.770Z,5.21
2022-11-10T02:35:15.210Z,5.18
2022-11-10T02:38:03.280Z,5.18
2022-11-10T02:40:51.530Z,5.13
2022-11-10T02:43:41.204Z,5.10
2022-11-10T02:46:28.729Z,5.06
2022-11-10T02:49:15.964Z,5.05
2022-11-10T02:52:03.308Z,5.05
2022-11-10T02:54:51.772Z,5.06
2022-11-10T02:57:40.964Z,5.04
2022-11-10T03:00:28.694Z,5.03
2022-11-10T03:03:16.028Z,5.05
2022-11-10T03:06:04.319Z,5.07
2022-11-10T03:08:52.554Z,5.07
2022-11-10T03:11:39.583Z,5.11
2022-11-10T03:14:27.210Z,5.16
2022-11-10T03:17:15.750Z,5.22
2022-11-10T03:20:04.045Z,5.28
2022-11-10T03:22:52.407Z,5.33
2022-11-10T03:25:40.437Z,5.36
2022-11-10T03:28:28.635Z,5.43
2022-11-10T03:31:16.196Z,5.47
2022-11-10T03:34:03.212Z,5.53
2022-11-10T03:36:50.393Z,5.56
2022-11-10T03:39:40.056Z,5.58
2022-11-10T03:42:28.649Z,5.65
2022-11-10T03:45:16.381Z,5.67
2022-11-10T03:48:05.718Z,5.69
2022-11-10T03:50:53.185Z,5.72
2022-11-10T03:53:42.034Z,5.73
2022-11-10T03:56:29.809Z,5.76
2022-11-10T03:59:17.981Z,5.79
2022-11-10T04:02:05.728Z,5.79
2022-11-10T04:05:12.933Z,5.82
2022-11-10T04:08:18.759Z,5.86
2022-11-10T04:11:06.530Z,5.90
2022-11-10T04:14:11.874Z,5.90
2022-11-10T04:17:01.045Z,5.92
2022-11-10T04:19:48.155Z,5.93
2022-11-10T04:22:54.112Z,5.94
2022-11-10T04:25:44.063Z,5.98
2022-11-10T04:28:33.174Z,6.02
2022-11-10T04:31:22.441Z,6.02
2022-11-10T04:34:13.073Z,6.02
2022-11-10T04:37:01.023Z,6.04
2022-11-10T04:39:48.432Z,6.07
2022-11-10T04:42:36.113Z,6.11
2022-11-10T04:45:23.418Z,6.10
2022-11-10T04:48:11.665Z,6.08
2022-11-10T04:51:07.110Z,6.08
2022-11-10T04:53:55.100Z,6.08
2022-11-10T04:56:43.240Z,6.12
2022-11-10T04:59:31.240Z,6.13
2022-11-10T05:02:18.526Z,6.15
2022-11-10T05:05:08.293Z,6.16
2022-11-10T05:07:58.108Z,6.18
2022-11-10T05:10:47.703Z,6.20
2022-11-10T05:13:36.473Z,6.21
2022-11-10T05:16:23.666Z,6.22
2022-11-10T05:19:11.818Z,6.22
2022-11-10T05:21:59.159Z,6.24
2022-11-10T05:24:46.459Z,6.22
2022-11-10T05:27:34.733Z,6.24
2022-11-10T05:30:22.976Z,6.24
2022-11-10T05:33:11.938Z,6.26
2022-11-10T05:35:59.698Z,6.28
2022-11-10T05:38:48.844Z,6.30
2022-11-10T05:41:36.719Z,6.33
2022-11-10T05:44:24.364Z,6.36
2022-11-10T05:47:12.509Z,6.37
2022-11-10T05:50:00.614Z,6.39
2022-11-10T05:52:52.358Z,6.41
2022-11-10T05:55:40.450Z,6.44
2022-11-10T05:58:27.981Z,6.44
2022-11-10T06:01:15.586Z,6.46
2022-11-10T06:04:03.439Z,6.47
2022-11-10T06:06:51.838Z,6.53
2022-11-10T06:09:39.847Z,6.57
2022-11-10T06:12:29.757Z,6.60
2022-11-10T06:15:17.450Z,6.61
2022-11-10T06:18:06.453Z,6.63
2022-11-10T06:20:54.488Z,6.68
2022-11-10T06:23:43.234Z,6.71
2022-11-10T06:26:31.893Z,6.76
2022-11-10T06:29:25.532Z,6.80
2022-11-10T06:32:11.768Z,6.83
2022-11-10T06:35:00.806Z,6.84
2022-11-10T06:38:06.590Z,6.86
2022-11-10T06:40:56.486Z,6.88
2022-11-10T06:43:43.992Z,6.93
2022-11-10T06:46:34.982Z,6.96
2022-11-10T06:49:22.133Z,7.02
2022-11-10T06:52:10.207Z,7.05
2022-11-10T06:54:58.897Z,7.08
2022-11-10T06:57:47.538Z,7.10
2022-11-10T07:00:36.686Z,7.11
2022-11-10T07:03:24.597Z,7.13
2022-11-10T07:06:13.059Z,7.13
2022-11-10T07:09:00.887Z,7.13
2022-11-10T07:11:50.646Z,7.14
2022-11-10T07:14:38.287Z,7.19
2022-11-10T07:17:25.787Z,7.21
2022-11-10T07:20:13.922Z,7.23
2022-11-10T07:23:03.332Z,7.23
2022-11-10T07:25:50.552Z,7.24
2022-11-10T07:28:39.263Z,7.25
2022-11-10T07:31:28.082Z,7.28
2022-11-10T07:34:15.942Z,7.34
2022-11-10T07:37:04.373Z,7.38
2022-11-10T07:39:51.654Z,7.41
2022-11-10T07:42:41.009Z,7.44
2022-11-10T07:45:28.273Z,7.46
2022-11-10T07:48:16.617Z,7.50
2022-11-10T07:51:04.925Z,7.55
2022-11-10T07:53:52.296Z,7.60
2022-11-10T07:56:39.410Z,7.62
2022-11-10T07:59:26.362Z,7.67
2022-11-10T08:02:13.688Z,7.74
2022-11-10T08:05:00.828Z,7.79
2022-11-10T08:07:50.381Z,7.84
2022-11-10T08:10:38.483Z,7.89
2022-11-10T08:13:25.920Z,7.95
2022-11-10T08:16:14.653Z,8.02
2022-11-10T08:19:02.620Z,8.05
2022-11-10T08:21:50.977Z,8.09
2022-11-10T08:24:38.907Z,8.11
2022-11-10T08:27:26.169Z,8.16
2022-11-10T08:30:14.908Z,8.19
2022-11-10T08:33:03.155Z,8.20
2022-11-10T08:35:52.715Z,8.23
2022-11-10T08:38:42.118Z,8.25
2022-11-10T08:41:30.687Z,8.28
2022-11-10T08:44:20.765Z,8.33
2022-11-10T08:47:08.067Z,8.37
2022-11-10T08:49:55.983Z,8.39
2022-11-10T08:52:46.207Z,8.41
2022-11-10T08:55:39.714Z,8.41
2022-11-10T08:58:27.387Z,8.42
2022-11-10T09:01:15.737Z,8.46
2022-11-10T09:04:04.271Z,8.50
2022-11-10T09:06:55.217Z,8.53
2022-11-10T09:09:46.667Z,8.55
2022-11-10T09:12:32.948Z,8.59
2022-11-10T09:15:20.458Z,8.61
2022-11-10T09:18:08.875Z,8.60
2022-11-10T09:20:57.997Z,8.63
2022-11-10T09:23:46.618Z,8.62
2022-11-10T09:26:40.832Z,8.64
2022-11-10T09:29:28.349Z,8.65
2022-11-10T09:32:15.956Z,8.70
2022-11-10T09:35:04.569Z,8.72
2022-11-10T09:37:53.266Z,8.72
2022-11-10T09:41:02.904Z,8.73
2022-11-10T09:44:17.597Z,8.76
2022-11-10T09:47:42.452Z,8.73
2022-11-10T09:50:17.609Z,8.73
2022-11-10T09:53:06.149Z,8.73
2022-11-10T09:56:02.184Z,8.75
2022-11-10T09:58:51.983Z,8.75
2022-11-10T10:01:51.684Z,8.73
2022-11-10T10:05:19.013Z,8.72
2022-11-10T10:08:11.892Z,8.73
2022-11-10T10:11:08.320Z,8.76
2022-11-10T10:14:17.976Z,8.79
2022-11-10T10:17:31.257Z,8.80
2022-11-10T10:20:35.338Z,8.77
2022-11-10T10:26:31.082Z,8.76
2022-11-10T10:29:37.061Z,8.78
2022-11-10T10:32:23.273Z,8.77
2022-11-10T10:35:17.222Z,8.79
2022-11-10T10:38:06.112Z,8.79
2022-11-10T10:40:54.411Z,8.81
2022-11-10T10:43:48.078Z,8.81
2022-11-10T10:47:02.768Z,8.80
2022-11-10T10:49:52.352Z,8.81
2022-11-10T10:52:39.199Z,8.78
2022-11-10T10:55:35.722Z,8.80
2022-11-10T10:58:53.573Z,8.77
2022-11-10T11:01:41.004Z,8.74
2022-11-10T11:04:35.281Z,8.73
2022-11-10T11:07:50.465Z,8.74
2022-11-10T11:10:54.360Z,8.76
2022-11-10T11:14:27.233Z,8.78
2022-11-10T11:17:21.165Z,8.79
2022-11-10T11:20:14.741Z,8.79
2022-11-10T11:23:16.982Z,8.81
2022-11-10T11:26:45.673Z,8.81
2022-11-10T11:30:03.762Z,8.82
2022-11-10T11:33:22.505Z,8.83
2022-11-10T11:36:30.782Z,8.81
2022-11-10T11:39:36.881Z,8.82
2022-11-10T11:42:33.728Z,8.79
2022-11-10T11:45:46.065Z,8.73
2022-11-10T11:49:10.215Z,8.73
2022-11-10T11:52:25.732Z,8.75
2022-11-10T11:55:55.942Z,8.74
2022-11-10T11:59:06.020Z,8.72
2022-11-10T12:02:14.281Z,8.69
2022-11-10T12:05:25.959Z,8.67
2022-11-10T12:08:47.959Z,8.66
2022-11-10T12:11:41.890Z,8.64
2022-11-10T12:14:40.848Z,8.62
2022-11-10T12:17:55.402Z,8.60
2022-11-10T12:21:19.972Z,8.63
2022-11-10T12:24:31.188Z,8.63
2022-11-10T12:27:32.492Z,8.58
2022-11-10T12:30:21.483Z,8.61
2022-11-10T12:33:44.525Z,8.62
2022-11-10T12:36:33.797Z,8.62
2022-11-10T12:39:38.772Z,8.61
2022-11-10T12:42:31.051Z,8.62
2022-11-10T12:45:28.494Z,8.61
2022-11-10T12:48:16.677Z,8.61
2022-11-10T12:51:15.178Z,8.61
2022-11-10T12:54:04.995Z,8.59
2022-11-10T12:57:04.634Z,8.61
2022-11-10T13:00:08.289Z,8.62
2022-11-10T13:03:23.393Z,8.63
2022-11-10T13:06:27.367Z,8.66
2022-11-10T13:09:31.378Z,8.66
2022-11-10T13:12:23.107Z,8.65
2022-11-10T13:15:39.990Z,8.64
2022-11-10T13:18:41.601Z,8.63
2022-11-10T13:22:00.967Z,8.60
2022-11-10T13:24:54.262Z,8.57
2022-11-10T13:27:50.562Z,8.56
2022-11-10T13:30:45.583Z,8.59
2022-11-10T13:33:39.676Z,8.57
2022-11-10T13:36:52.092Z,8.57
2022-11-10T13:39:40.464Z,8.57
2022-11-10T13:42:28.383Z,8.60
2022-11-10T13:45:40.284Z,8.61
2022-11-10T13:48:51.694Z,8.61
2022-11-10T13:52:18.614Z,8.61
2022-11-10T13:55:29.405Z,8.61
2022-11-10T13:58:21.130Z,8.64
2022-11-10T14:01:23.344Z,8.63
2022-11-10T14:04:12.735Z,8.63
2022-11-10T14:07:00.617Z,8.63
2022-11-10T14:09:53.034Z,8.63
2022-11-10T14:12:52.714Z,8.62
2022-11-10T14:15:46.633Z,8.62
2022-11-10T14:18:48.904Z,8.61
2022-11-10T14:21:55.394Z,8.62
2022-11-10T14:25:08.000Z,8.63
2022-11-10T14:27:58.379Z,8.65
2022-11-10T14:30:51.167Z,8.65
2022-11-10T14:33:39.175Z,8.64
2022-11-10T14:36:26.913Z,8.63
2022-11-10T14:39:16.053Z,8.65
2022-11-10T14:42:04.982Z,8.64
2022-11-10T14:45:18.841Z,8.63
2022-11-10T14:48:18.128Z,8.64
2022-11-10T14:51:17.309Z,8.61
2022-11-10T14:54:04.673Z,8.63
2022-11-10T14:56:53.067Z,8.64
2022-11-10T14:59:40.337Z,8.62
2022-11-10T15:02:28.419Z,8.60
2022-11-10T15:05:16.449Z,8.60
2022-11-10T15:08:05.922Z,8.58
2022-11-10T15:10:53.669Z,8.60
2022-11-10T15:13:42.983Z,8.60
2022-11-10T15:16:36.240Z,8.62
2022-11-10T15:19:49.847Z,8.63
2022-11-10T15:22:37.520Z,8.67
2022-11-10T15:25:27.757Z,8.68
2022-11-10T15:28:26.665Z,8.68
2022-11-10T15:31:26.488Z,8.69
2022-11-10T15:34:31.911Z,8.68
2022-11-10T15:37:34.002Z,8.68
2022-11-10T15:40:45.414Z,8.70
2022-11-10T15:43:34.675Z,8.72
2022-11-10T15:46:25.048Z,8.70
2022-11-10T15:49:35.066Z,8.69
2022-11-10T15:52:24.059Z,8.67
2022-11-10T15:55:23.473Z,8.67
2022-11-10T15:58:19.628Z,8.68
2022-11-10T16:01:10.551Z,8.67
2022-11-10T16:03:58.505Z,8.67
2022-11-10T16:06:46.041Z,8.67
2022-11-10T16:09:34.399Z,8.69
2022-11-10T16:12:22.354Z,8.71
2022-11-10T16:15:16.678Z,8.69
2022-11-10T16:18:05.294Z,8.69
2022-11-10T16:20:53.071Z,8.70
2022-11-10T16:23:42.332Z,8.72
2022-11-10T16:26:31.536Z,8.70
2022-11-10T16:29:19.666Z,8.68
2022-11-10T16:32:07.347Z,8.68
2022-11-10T16:34:55.166Z,8.70
2022-11-10T16:37:43.306Z,8.70
2022-11-10T16:40:31.107Z,8.70
2022-11-10T16:43:19.392Z,8.70
2022-11-10T16:46:23.033Z,8.70
2022-11-10T16:49:27.304Z,8.73
2022-11-10T16:52:17.698Z,8.73
2022-11-10T16:55:06.375Z,8.78
2022-11-10T16:57:55.238Z,8.79
2022-11-10T17:00:44.124Z,8.80
2022-11-10T17:03:40.321Z,8.81
2022-11-10T17:06:28.903Z,8.81
2022-11-10T17:09:21.412Z,8.81
2022-11-10T17:12:12.919Z,8.81
2022-11-10T17:15:00.946Z,8.85
2022-11-10T17:17:52.122Z,8.84
2022-11-10T17:20:40.024Z,8.84
2022-11-10T17:23:29.104Z,8.84
2022-11-10T17:26:18.275Z,8.83
2022-11-10T17:29:06.380Z,8.83
2022-11-10T17:31:55.795Z,8.82
2022-11-10T17:34:43.965Z,8.84
2022-11-10T17:37:31.528Z,8.83
2022-11-10T17:40:23.374Z,8.84
2022-11-10T17:43:12.959Z,8.84
2022-11-10T17:46:00.287Z,8.84
2022-11-10T17:48:50.356Z,8.84
2022-11-10T17:51:38.413Z,8.85
2022-11-10T17:54:25.747Z,8.84
2022-11-10T17:57:14.507Z,8.84
2022-11-10T18:00:02.524Z,8.84
2022-11-10T18:02:55.496Z,8.84
2022-11-10T18:05:44.753Z,8.84
2022-11-10T18:08:33.263Z,8.82
2022-11-10T18:11:20.617Z,8.80
2022-11-10T18:14:09.085Z,8.80
2022-11-10T18:16:58.884Z,8.81
2022-11-10T18:19:48.024Z,8.81
2022-11-10T18:22:35.525Z,8.81
2022-11-10T18:25:22.452Z,8.80
2022-11-10T18:28:12.186Z,8.81
2022-11-10T18:31:10.426Z,8.83
2022-11-10T18:33:57.503Z,8.82
2022-11-10T18:36:45.650Z,8.82
2022-11-10T18:39:32.470Z,8.83
2022-11-10T18:42:19.827Z,8.83
2022-11-10T18:45:08.676Z,8.82
2022-11-10T18:48:02.803Z,8.83
2022-11-10T18:50:51.619Z,8.82
2022-11-10T18:53:40.501Z,8.84
2022-11-10T18:56:28.654Z,8.86
2022-11-10T18:59:16.987Z,8.88
2022-11-10T19:02:04.341Z,8.88
2022-11-10T19:04:53.661Z,8.88
2022-11-10T19:07:42.923Z,8.89
2022-11-10T19:10:31.674Z,8.89
2022-11-10T19:13:19.637Z,8.90
2022-11-10T19:16:12.809Z,8.88
2022-11-10T19:19:00.725Z,8.88
2022-11-10T19:21:48.078Z,8.88
2022-11-10T19:24:53.826Z,8.89
2022-11-10T19:27:26.710Z,8.88
2022-11-10T19:30:15.210Z,8.84
2022-11-10T19:33:02.349Z,8.84
2022-11-10T19:35:49.649Z,8.84
2022-11-10T19:38:37.816Z,8.84
2022-11-10T19:41:27.507Z,8.86
2022-11-10T19:44:15.648Z,8.87
2022-11-10T19:47:04.260Z,8.86
2022-11-10T19:49:51.531Z,8.85
2022-11-10T19:52:39.827Z,8.84
2022-11-10T19:55:27.155Z,8.84
2022-11-10T19:58:14.526Z,8.85
2022-11-10T20:01:02.229Z,8.83
2022-11-10T20:03:49.247Z,8.83
2022-11-10T20:06:37.414Z,8.83
2022-11-10T20:09:25.034Z,8.87
2022-11-10T20:12:13.845Z,8.88
2022-11-10T20:15:02.749Z,8.90
2022-11-10T20:17:50.782Z,8.90
2022-11-10T20:20:39.351Z,8.91
2022-11-10T20:23:27.303Z,8.91
2022-11-10T20:26:17.139Z,8.93
2022-11-10T20:29:04.162Z,8.92
2022-11-10T20:31:52.054Z,8.92
2022-11-10T20:34:40.157Z,8.92
2022-11-10T20:37:27.644Z,8.93
2022-11-10T20:40:42.307Z,8.95
2022-11-10T20:43:05.739Z,8.94
2022-11-10T20:45:54.621Z,8.94
2022-11-10T20:48:42.972Z,8.94
2022-11-10T20:51:30.436Z,8.96
2022-11-10T20:54:17.910Z,8.97
2022-11-10T20:57:06.555Z,8.95
2022-11-10T20:59:56.038Z,8.96
2022-11-10T21:02:44.559Z,8.98
2022-11-10T21:05:32.323Z,8.98
2022-11-10T21:08:20.023Z,8.97
2022-11-10T21:11:09.444Z,8.94
2022-11-10T21:13:56.853Z,8.91
2022-11-10T21:16:44.110Z,8.90
2022-11-10T21:19:35.243Z,8.91
2022-11-10T21:22:22.807Z,8.92
2022-11-10T21:25:10.650Z,8.93
2022-11-10T21:27:59.210Z,8.93
2022-11-10T21:30:46.344Z,8.90
2022-11-10T21:33:35.310Z,8.90
2022-11-10T21:36:23.191Z,8.94
2022-11-10T21:39:10.617Z,8.95
2022-11-10T21:41:58.331Z,8.93
2022-11-10T21:44:45.772Z,8.92
2022-11-10T21:47:34.706Z,8.90
2022-11-10T21:50:23.027Z,8.91
2022-11-10T21:53:11.186Z,8.90
2022-11-10T21:56:03.284Z,8.90
2022-11-10T21:58:50.583Z,8.91
2022-11-10T22:01:38.989Z,8.92
2022-11-10T22:04:26.533Z,8.91
2022-11-10T22:07:24.566Z,8.88
2022-11-10T22:10:30.250Z,8.88
2022-11-10T22:13:39.123Z,8.89
2022-11-10T22:17:02.538Z,8.87
2022-11-10T22:19:49.858Z,8.88
2022-11-10T22:22:37.493Z,8.88
2022-11-10T22:25:27.580Z,8.89
2022-11-10T22:28:15.009Z,8.90
2022-11-10T22:31:03.988Z,8.92
2022-11-10T22:33:51.708Z,8.93
2022-11-10T22:36:39.385Z,8.92
2022-11-10T22:39:45.169Z,8.90
2022-11-10T22:42:51.677Z,8.93
2022-11-10T22:45:39.634Z,8.93
2022-11-10T22:48:26.931Z,8.93
2022-11-10T22:51:14.266Z,8.94
2022-11-10T22:54:01.427Z,8.93
2022-11-10T22:56:50.646Z,8.95
2022-11-10T22:59:38.380Z,8.97
2022-11-10T23:02:26.322Z,9.00
2022-11-10T23:05:15.101Z,8.99
2022-11-10T23:08:03.526Z,9.00
2022-11-10T23:11:00.517Z,9.00
2022-11-10T23:13:50.151Z,8.98
2022-11-10T23:16:37.607Z,8.98
2022-11-10T23:19:25.312Z,8.95
2022-11-10T23:22:13.578Z,8.98
2022-11-10T23:25:01.153Z,9.01
2022-11-10T23:27:51.074Z,9.00
2022-11-10T23:30:39.456Z,9.01
2022-11-10T23:33:32.538Z,9.01
2022-11-10T23:36:19.720Z,8.99
2022-11-10T23:39:07.803Z,9.01
2022-11-10T23:41:55.418Z,9.01
2022-11-10T23:44:42.904Z,9.02
2022-11-10T23:47:31.037Z,8.99
2022-11-10T23:50:18.246Z,9.00
2022-11-10T23:53:05.218Z,8.99
2022-11-10T23:56:01.807Z,8.99
2022-11-10T23:58:49.684Z,8.96
